Vamp — WDD2421 — position and weather

sailwx.info

Track history (hours):
 
Tides and Currents Weather Stations Pressure Air Temp Water Temp Dewpoint Dewpoint Depression Visibility Wind Speed Wind Dir Waves Ship Positions

Vamp

Owner: Sitar, Leonard J, Holmdel, NJ. More information available from US FCC via Universal Licensing System and Coast Guard Vessel Documentation Center.

Last reported at 2015-Sep-06 03:04 UTC. Time now 2016-Feb-14 19:00 UTC.
Position N 41°00' W 073°28'.
Warning: this ship's position is months out of date.

Length 14 m.

Type: Sailing vessel. MMSI: 367115110.

Date/timePositionNaut miles runAvg speedWind from/ knotsBaromVisibWave heightAir tempDewpointWater temp
2015-Sep-06 03:04N 41°00' W 073°28'1 2.9
2015-Sep-06 02:33N 41°00' W 073°26'6 5.8
2015-Sep-06 01:33N 41°02' W 073°19'25 7.7
2015-Sep-05 22:15N 41°07' W 072°46'5 7.8
2015-Sep-05 21:34N 41°07' W 072°39'8 7.8
2015-Sep-05 20:34N 41°08' W 072°28'9 8.6
2015-Sep-05 19:34N 41°10' W 072°17'12 0.7
2015-Sep-05 00:33N 41°13' W 072°33'7 6.6
2015-Sep-04 23:34N 41°11' W 072°42'6 6.0
2015-Sep-04 22:34N 41°12' W 072°50'7 6.9
2015-Sep-04 21:34N 41°09' W 072°58'10 6.9
2015-Sep-04 20:06N 41°05' W 073°10'9 5.5
2015-Sep-04 18:32N 41°03' W 073°22'7 5.2
2015-Sep-04 17:06N 41°00' W 073°31'1 1.3
2015-Sep-04 16:33N 41°00' W 073°32'5 4.3
2015-Sep-04 15:29N 40°58' W 073°37'  
2015-Aug-29 01:32N 40°29' W 073°60'  
Track history (hours):
 
Tides and Currents Weather Stations Pressure Air Temp Water Temp Dewpoint Dewpoint Depression Visibility Wind Speed Wind Dir Waves Ship Positions

Vamp

Owner: Sitar, Leonard J, Holmdel, NJ. More information available from US FCC via Universal Licensing System and Coast Guard Vessel Documentation Center.

Last reported at 2015-Sep-06 03:04 UTC. Time now 2016-Feb-14 19:00 UTC.
Position N 41°00' W 073°28'.
Warning: this ship's position is months out of date.

Length 14 m.

Type: Sailing vessel. MMSI: 367115110.

Date/timePositionNaut miles runAvg speedWind from/ knotsBaromVisibWave heightAir tempDewpointWater temp
2015-Sep-06 03:04N 41°00' W 073°28'1 2.9
2015-Sep-06 02:33N 41°00' W 073°26'6 5.8
2015-Sep-06 01:33N 41°02' W 073°19'25 7.7
2015-Sep-05 22:15N 41°07' W 072°46'5 7.8
2015-Sep-05 21:34N 41°07' W 072°39'8 7.8
2015-Sep-05 20:34N 41°08' W 072°28'9 8.6
2015-Sep-05 19:34N 41°10' W 072°17'12 0.7
2015-Sep-05 00:33N 41°13' W 072°33'7 6.6
2015-Sep-04 23:34N 41°11' W 072°42'6 6.0
2015-Sep-04 22:34N 41°12' W 072°50'7 6.9
2015-Sep-04 21:34N 41°09' W 072°58'10 6.9
2015-Sep-04 20:06N 41°05' W 073°10'9 5.5
2015-Sep-04 18:32N 41°03' W 073°22'7 5.2
2015-Sep-04 17:06N 41°00' W 073°31'1 1.3
2015-Sep-04 16:33N 41°00' W 073°32'5 4.3
2015-Sep-04 15:29N 40°58' W 073°37'  
2015-Aug-29 01:32N 40°29' W 073°60'  

Dump ship's entire track history